Time;durP1;ratioP1;P1;durP2;ratioP2;P2;SDS_P1;SDS_P2;PMS_P1;PMS_P2;Temp;Humidity;BMP_temperature;BMP_pressure;BME280_temperature;BME280_humidity;BME280_pressure;Samples;Min_cycle;Max_cycle;Signal;HPM_P1;HPM_P2
2022/04/23 00:01:54;;;;;;;64.22;42.15;;;11.80;99.90;;;;;;4995797;28;20046;-74
2022/04/23 00:04:20;;;;;;;56.45;40.13;;;11.80;99.90;;;;;;5008727;28;20026;-74
2022/04/23 00:06:46;;;;;;;56.58;38.67;;;11.90;99.90;;;;;;5008506;28;20117;-74
2022/04/23 00:09:12;;;;;;;55.05;37.47;;;11.90;99.90;;;;;;5008157;28;20419;-74
2022/04/23 00:11:37;;;;;;;63.17;39.35;;;11.90;99.90;;;;;;5005205;28;20033;-74
2022/04/23 00:14:07;;;;;;;52.33;36.95;;;12.00;99.90;;;;;;5004898;28;21071;-74
2022/04/23 00:16:33;;;;;;;54.10;36.88;;;12.00;99.90;;;;;;5005307;28;20019;-74
2022/04/23 00:18:59;;;;;;;51.03;36.60;;;11.90;99.90;;;;;;5009084;28;20064;-74
2022/04/23 00:21:25;;;;;;;53.40;37.10;;;11.80;99.90;;;;;;4998649;28;20085;-74
2022/04/23 00:23:51;;;;;;;53.50;37.35;;;11.80;99.90;;;;;;5000761;28;20042;-74
2022/04/23 00:26:17;;;;;;;55.13;38.58;;;11.80;99.90;;;;;;5008282;28;20034;-74
2022/04/23 00:28:43;;;;;;;57.35;37.78;;;11.90;99.90;;;;;;5009908;28;20022;-74
2022/04/23 00:31:09;;;;;;;53.40;35.78;;;11.90;99.90;;;;;;5005616;28;20030;-74
2022/04/23 00:33:38;;;;;;;55.10;35.90;;;11.90;99.90;;;;;;5009808;28;20037;-74
2022/04/23 00:36:05;;;;;;;50.17;34.38;;;11.80;99.90;;;;;;5006466;28;20037;-74
2022/04/23 00:38:33;;;;;;;50.95;33.83;;;11.70;99.90;;;;;;5002013;28;20030;-74
2022/04/23 00:40:59;;;;;;;48.92;34.33;;;11.70;99.90;;;;;;5007686;28;20029;-74
2022/04/23 00:43:30;;;;;;;46.05;32.00;;;11.80;99.90;;;;;;5006188;28;20104;-74
2022/04/23 00:45:57;;;;;;;45.05;29.50;;;11.70;99.90;;;;;;5009529;28;20145;-74
2022/04/23 00:48:24;;;;;;;44.20;31.23;;;11.50;99.90;;;;;;4995583;28;20037;-74
2022/04/23 00:50:55;;;;;;;43.40;28.25;;;11.50;99.90;;;;;;5005310;28;20512;-74
2022/04/23 00:53:22;;;;;;;47.58;31.60;;;11.30;99.90;;;;;;5008232;28;20045;-74
2022/04/23 00:55:48;;;;;;;48.70;32.83;;;11.30;99.90;;;;;;5008833;28;20076;-74
2022/04/23 00:58:17;;;;;;;46.28;32.45;;;11.40;99.90;;;;;;5007441;28;20030;-74
2022/04/23 01:00:46;;;;;;;51.42;34.92;;;11.40;99.90;;;;;;5009324;28;20034;-74
2022/04/23 01:03:13;;;;;;;47.25;31.98;;;11.40;99.90;;;;;;5007502;28;20046;-74
2022/04/23 01:05:46;;;;;;;50.70;33.25;;;11.30;99.90;;;;;;4995264;28;150145;-74
2022/04/23 01:08:18;;;;;;;58.38;36.40;;;11.20;99.90;;;;;;5008497;28;20030;-74
2022/04/23 01:10:45;;;;;;;61.55;40.50;;;11.30;99.90;;;;;;5000564;28;20041;-74
2022/04/23 01:13:14;;;;;;;50.88;34.47;;;11.20;99.90;;;;;;5010325;28;20033;-74
2022/04/23 01:15:43;;;;;;;53.13;35.38;;;11.30;99.90;;;;;;5003737;28;20033;-74
2022/04/23 01:18:09;;;;;;;52.42;36.38;;;11.20;99.90;;;;;;5010251;28;20042;-74
2022/04/23 01:20:36;;;;;;;53.55;35.25;;;11.10;99.90;;;;;;5004321;28;20097;-74
2022/04/23 01:23:01;;;;;;;56.45;38.47;;;11.10;99.90;;;;;;5001734;28;20056;-73
2022/04/23 01:25:28;;;;;;;50.53;33.22;;;11.10;99.90;;;;;;5006255;28;20384;-74
2022/04/23 01:27:54;;;;;;;62.90;41.55;;;10.90;99.90;;;;;;5007407;28;20026;-74
2022/04/23 01:30:20;;;;;;;59.53;37.55;;;11.00;99.90;;;;;;5006057;28;20435;-74
2022/04/23 01:32:46;;;;;;;58.15;39.13;;;10.90;99.90;;;;;;5005528;28;20038;-74
2022/04/23 01:35:11;;;;;;;66.00;43.00;;;10.90;99.90;;;;;;5007834;28;20038;-74
2022/04/23 01:37:37;;;;;;;70.68;45.70;;;11.20;99.90;;;;;;5006059;28;20080;-74
2022/04/23 01:40:03;;;;;;;68.20;43.50;;;11.40;99.90;;;;;;5008409;28;20380;-74
2022/04/23 01:42:29;;;;;;;61.70;39.17;;;11.30;99.90;;;;;;5005907;28;20046;-74
2022/04/23 01:44:54;;;;;;;72.35;44.08;;;11.20;99.90;;;;;;5010621;28;20074;-74
2022/04/23 01:47:20;;;;;;;69.82;46.30;;;11.20;99.90;;;;;;4998093;28;20066;-74
2022/04/23 01:49:46;;;;;;;64.65;43.50;;;11.30;99.90;;;;;;5009869;28;20026;-74
2022/04/23 01:52:13;;;;;;;65.88;40.20;;;11.30;99.90;;;;;;5008245;28;20038;-74
2022/04/23 01:54:38;;;;;;;61.42;38.30;;;11.30;99.90;;;;;;5005814;28;20116;-74
2022/04/23 01:57:05;;;;;;;55.33;37.83;;;11.20;99.90;;;;;;5003989;28;20495;-74
2022/04/23 01:59:31;;;;;;;52.88;36.50;;;11.30;99.90;;;;;;5004652;28;20515;-74
2022/04/23 02:01:59;;;;;;;55.50;36.95;;;11.30;99.90;;;;;;5007996;28;20128;-74
2022/04/23 02:04:26;;;;;;;64.10;43.38;;;11.20;99.90;;;;;;5010474;28;20058;-74
2022/04/23 02:06:51;;;;;;;63.95;41.30;;;11.30;99.90;;;;;;5009865;28;20172;-74
2022/04/23 02:09:17;;;;;;;64.18;42.97;;;11.40;99.90;;;;;;5010702;28;20151;-74
2022/04/23 02:11:43;;;;;;;59.22;38.13;;;11.40;99.90;;;;;;5009498;28;20184;-74
2022/04/23 02:14:09;;;;;;;59.67;39.60;;;11.10;99.90;;;;;;5006264;28;20088;-74
2022/04/23 02:16:35;;;;;;;53.80;37.13;;;11.00;99.90;;;;;;5011965;28;20100;-74
2022/04/23 02:19:03;;;;;;;65.43;41.85;;;11.00;99.90;;;;;;5011050;28;20165;-74
2022/04/23 02:21:29;;;;;;;60.63;40.80;;;11.20;99.90;;;;;;5002020;28;20137;-74
2022/04/23 02:23:55;;;;;;;59.30;41.65;;;11.30;99.90;;;;;;5005557;28;20041;-73
2022/04/23 02:26:22;;;;;;;51.50;35.53;;;11.40;99.90;;;;;;5010936;28;20026;-74
2022/04/23 02:28:48;;;;;;;44.85;27.55;;;11.40;99.90;;;;;;5013273;28;20034;-74
2022/04/23 02:31:14;;;;;;;41.95;28.08;;;11.20;99.90;;;;;;4999864;28;20030;-74
2022/04/23 02:33:40;;;;;;;42.13;28.25;;;11.20;99.90;;;;;;5005720;28;20341;-74
2022/04/23 02:36:07;;;;;;;39.58;26.75;;;11.20;99.90;;;;;;5010911;28;20022;-74
2022/04/23 02:38:34;;;;;;;39.35;26.25;;;11.10;99.90;;;;;;5013138;28;20026;-74
2022/04/23 02:40:59;;;;;;;42.30;27.95;;;11.10;99.90;;;;;;5009667;28;20053;-74
2022/04/23 02:43:25;;;;;;;51.08;31.80;;;11.10;99.90;;;;;;5012622;28;20576;-74
2022/04/23 02:45:52;;;;;;;49.55;32.50;;;11.30;99.90;;;;;;5005549;28;20034;-74
2022/04/23 02:48:18;;;;;;;54.78;36.20;;;11.40;99.90;;;;;;4999892;28;20084;-74
2022/04/23 02:50:43;;;;;;;53.50;35.33;;;11.40;99.90;;;;;;5007031;28;20030;-74
2022/04/23 02:53:09;;;;;;;48.53;31.52;;;11.20;99.90;;;;;;5008999;28;20030;-74
2022/04/23 02:55:36;;;;;;;45.25;31.67;;;11.10;99.90;;;;;;5008720;28;20034;-74
2022/04/23 02:58:09;;;;;;;52.33;31.77;;;11.20;99.90;;;;;;5012908;28;20044;-74
2022/04/23 03:00:38;;;;;;;46.92;31.30;;;11.30;99.90;;;;;;5008254;28;20034;-73
2022/04/23 03:03:05;;;;;;;48.55;33.75;;;11.20;99.90;;;;;;5007318;28;20041;-73
2022/04/23 03:05:31;;;;;;;50.90;33.67;;;11.20;99.90;;;;;;5004331;28;20107;-74
2022/04/23 03:08:00;;;;;;;48.38;32.10;;;11.20;99.90;;;;;;5007838;28;20033;-73
2022/04/23 03:10:30;;;;;;;55.17;36.72;;;11.20;99.90;;;;;;5004258;28;20026;-74
2022/04/23 03:12:57;;;;;;;31.73;22.08;;;11.30;99.90;;;;;;5002210;28;20081;-73
2022/04/23 03:15:25;;;;;;;30.17;19.45;;;11.30;99.90;;;;;;5006717;28;20029;-74
2022/04/23 03:18:02;;;;;;;55.30;34.63;;;11.40;99.90;;;;;;4993511;28;20037;-73
2022/04/23 03:20:27;;;;;;;59.17;37.95;;;11.40;99.90;;;;;;4989710;28;20034;-73
2022/04/23 03:22:53;;;;;;;61.92;41.28;;;11.30;99.90;;;;;;5000516;28;20045;-73
2022/04/23 03:25:19;;;;;;;55.80;38.17;;;11.30;99.90;;;;;;4996915;28;20104;-73
2022/04/23 03:27:44;;;;;;;50.40;32.28;;;11.40;99.90;;;;;;5000842;28;20033;-73
2022/04/23 03:30:10;;;;;;;49.13;32.75;;;11.30;99.90;;;;;;5004545;28;20041;-73
2022/04/23 03:32:35;;;;;;;61.40;40.63;;;11.30;99.90;;;;;;5002525;28;20025;-73
2022/04/23 03:35:02;;;;;;;62.50;41.13;;;11.20;99.90;;;;;;5007079;28;20041;-73
2022/04/23 03:37:28;;;;;;;47.40;33.03;;;11.20;99.90;;;;;;5003944;28;20645;-74
2022/04/23 03:39:53;;;;;;;45.53;30.60;;;11.20;99.90;;;;;;5004970;28;20030;-73
2022/04/23 03:42:19;;;;;;;39.15;27.52;;;11.20;99.90;;;;;;5003258;28;20599;-73
2022/04/23 03:44:44;;;;;;;29.85;21.67;;;11.10;99.90;;;;;;5005215;28;20095;-73
2022/04/23 03:47:10;;;;;;;39.47;25.98;;;11.00;99.90;;;;;;4990888;28;20472;-73
2022/04/23 03:49:36;;;;;;;31.98;20.63;;;11.10;99.90;;;;;;5004059;28;20062;-74
2022/04/23 03:52:01;;;;;;;22.48;14.25;;;11.10;99.90;;;;;;5002030;28;20100;-73
2022/04/23 03:54:27;;;;;;;19.95;12.75;;;11.10;99.90;;;;;;5006955;28;20030;-73
2022/04/23 03:56:53;;;;;;;19.70;12.55;;;11.10;99.90;;;;;;4998714;28;20084;-73
2022/04/23 03:59:23;;;;;;;18.30;10.55;;;11.10;99.90;;;;;;5003730;28;20030;-73
2022/04/23 04:01:52;;;;;;;14.52;10.07;;;11.00;99.90;;;;;;5002064;28;20507;-73
2022/04/23 04:04:17;;;;;;;16.33;10.50;;;11.00;99.90;;;;;;5003392;28;20034;-74
2022/04/23 04:06:43;;;;;;;16.77;10.73;;;11.00;99.90;;;;;;4999815;28;20056;-73
2022/04/23 04:09:09;;;;;;;11.75;8.10;;;11.10;99.90;;;;;;5003603;28;20040;-73
2022/04/23 04:14:19;;;;;;;14.98;9.57;;;11.00;99.90;;;;;;4988218;28;20099;-73
2022/04/23 04:16:46;;;;;;;12.27;8.00;;;11.00;99.90;;;;;;4984337;28;20432;-73
2022/04/23 04:19:15;;;;;;;12.52;7.30;;;11.10;99.90;;;;;;4981021;28;20037;-73
2022/04/23 04:21:46;;;;;;;10.85;6.88;;;11.20;99.90;;;;;;4977954;28;20057;-73
2022/04/23 04:24:12;;;;;;;11.93;6.82;;;11.10;99.90;;;;;;4979542;28;20052;-72
2022/04/23 04:26:43;;;;;;;12.85;7.32;;;11.10;99.90;;;;;;4981067;28;20120;-73
2022/04/23 04:29:10;;;;;;;10.82;6.93;;;11.10;99.90;;;;;;4976248;28;20092;-73
2022/04/23 04:31:49;;;;;;;11.88;7.30;;;11.10;99.90;;;;;;4982875;28;20034;-73
2022/04/23 04:34:17;;;;;;;10.63;6.35;;;11.20;99.90;;;;;;4996517;28;20074;-73
2022/04/23 04:36:43;;;;;;;13.55;8.02;;;11.30;99.90;;;;;;4998758;28;20419;-74
2022/04/23 04:39:09;;;;;;;13.05;8.65;;;11.30;99.90;;;;;;4997072;28;20034;-73
2022/04/23 04:41:35;;;;;;;13.48;8.43;;;11.40;99.90;;;;;;4993726;28;20049;-74
2022/04/23 04:44:02;;;;;;;16.13;9.48;;;11.40;99.90;;;;;;4976448;28;20041;-73
2022/04/23 04:46:28;;;;;;;15.75;8.93;;;11.40;99.90;;;;;;4976892;28;20551;-74
2022/04/23 04:48:54;;;;;;;14.23;9.93;;;11.40;99.90;;;;;;4989275;28;20038;-74
2022/04/23 04:51:19;;;;;;;14.15;9.57;;;11.40;99.90;;;;;;5000592;28;20032;-74
2022/04/23 04:53:45;;;;;;;13.82;8.88;;;11.30;99.90;;;;;;4985995;28;20154;-74
2022/04/23 04:56:11;;;;;;;18.92;12.27;;;11.30;99.90;;;;;;4986618;28;20456;-74
2022/04/23 04:58:37;;;;;;;23.52;14.77;;;11.20;99.90;;;;;;4998051;28;20096;-74
2022/04/23 05:01:03;;;;;;;15.95;10.90;;;11.30;99.90;;;;;;5002940;28;20040;-73
2022/04/23 05:03:29;;;;;;;14.75;10.10;;;11.40;99.90;;;;;;4994144;28;20086;-73
2022/04/23 05:05:55;;;;;;;17.55;10.82;;;11.50;99.90;;;;;;4997158;28;20046;-74
2022/04/23 05:08:20;;;;;;;15.88;11.05;;;11.50;99.90;;;;;;4999992;28;20038;-74
2022/04/23 05:10:47;;;;;;;17.55;10.88;;;11.50;99.90;;;;;;5000675;28;20034;-74
2022/04/23 05:13:13;;;;;;;15.82;9.50;;;11.50;99.90;;;;;;5003458;28;20026;-74
2022/04/23 05:15:39;;;;;;;14.77;10.23;;;11.50;99.90;;;;;;4999921;28;20034;-73
2022/04/23 05:18:05;;;;;;;20.25;12.10;;;11.50;99.90;;;;;;4992615;28;20037;-74
2022/04/23 05:20:30;;;;;;;19.55;13.43;;;11.50;99.90;;;;;;4995911;28;20867;-74
2022/04/23 05:22:56;;;;;;;23.50;14.32;;;11.50;99.90;;;;;;5000782;28;20038;-74
2022/04/23 05:25:22;;;;;;;17.55;12.38;;;11.60;99.90;;;;;;5003600;28;20034;-73
2022/04/23 05:27:48;;;;;;;15.77;10.25;;;11.60;99.90;;;;;;4999280;28;20030;-74
2022/04/23 05:30:13;;;;;;;19.58;12.90;;;11.60;99.90;;;;;;5003174;28;20483;-74
2022/04/23 05:32:39;;;;;;;22.48;14.68;;;11.60;99.90;;;;;;5000263;28;20381;-73
2022/04/23 05:35:05;;;;;;;23.15;15.48;;;11.70;99.90;;;;;;5002297;28;20113;-74
2022/04/23 05:37:31;;;;;;;24.70;15.18;;;11.60;99.90;;;;;;4998112;28;20038;-74
2022/04/23 05:39:56;;;;;;;25.48;16.05;;;11.60;99.90;;;;;;5006041;28;20045;-74
2022/04/23 05:42:22;;;;;;;27.08;16.55;;;11.60;99.90;;;;;;5001220;28;20053;-74
2022/04/23 05:44:48;;;;;;;25.02;17.02;;;11.60;99.90;;;;;;4994008;28;20052;-74
2022/04/23 05:47:13;;;;;;;26.58;17.65;;;11.50;99.90;;;;;;5003244;28;20036;-73
2022/04/23 05:49:39;;;;;;;30.73;19.02;;;11.60;99.90;;;;;;5004749;28;20164;-74
2022/04/23 05:52:05;;;;;;;26.70;16.00;;;11.60;99.90;;;;;;5005181;28;20092;-74
2022/04/23 05:54:31;;;;;;;31.05;22.17;;;11.60;99.90;;;;;;5003535;28;20030;-74
2022/04/23 05:56:56;;;;;;;44.78;28.75;;;11.60;99.90;;;;;;5003163;28;20100;-74
2022/04/23 05:59:25;;;;;;;47.00;29.15;;;11.60;99.90;;;;;;5002756;28;21029;-74
2022/04/23 06:01:51;;;;;;;37.55;24.33;;;11.50;99.90;;;;;;4999205;28;20073;-73
2022/04/23 06:04:16;;;;;;;34.70;22.13;;;11.50;99.90;;;;;;4993518;28;20541;-74
2022/04/23 06:06:42;;;;;;;33.13;21.60;;;11.60;99.90;;;;;;4984537;28;20077;-74
2022/04/23 06:09:08;;;;;;;35.22;23.20;;;11.60;99.90;;;;;;4988274;28;20636;-74
2022/04/23 06:11:33;;;;;;;37.20;23.85;;;11.60;99.90;;;;;;4985792;28;20056;-73
2022/04/23 06:13:59;;;;;;;35.28;23.98;;;11.60;99.90;;;;;;4985116;28;20369;-73
2022/04/23 06:16:25;;;;;;;45.72;27.15;;;11.60;99.90;;;;;;5000059;28;20034;-74
2022/04/23 06:18:50;;;;;;;43.97;27.15;;;11.60;99.90;;;;;;5002290;28;20056;-74
2022/04/23 06:21:16;;;;;;;43.00;27.08;;;11.70;99.90;;;;;;5005493;28;20038;-74
2022/04/23 06:23:42;;;;;;;43.80;28.70;;;11.70;99.90;;;;;;4995478;28;20034;-74
2022/04/23 06:26:07;;;;;;;49.47;32.85;;;11.70;99.90;;;;;;5004424;28;20030;-74
2022/04/23 06:28:33;;;;;;;47.80;32.40;;;11.80;99.90;;;;;;4988212;28;20030;-74
2022/04/23 06:30:59;;;;;;;53.13;34.95;;;11.80;99.90;;;;;;5006146;28;20033;-73
2022/04/23 06:33:24;;;;;;;48.17;32.58;;;11.60;99.90;;;;;;5009816;28;20042;-72
2022/04/23 06:35:50;;;;;;;49.83;33.17;;;11.70;99.90;;;;;;5001203;28;20041;-72
2022/04/23 06:38:16;;;;;;;45.05;29.95;;;11.80;99.90;;;;;;5000809;28;20087;-72
2022/04/23 06:40:41;;;;;;;46.10;29.75;;;11.80;99.90;;;;;;5005072;28;20041;-72
2022/04/23 06:43:07;;;;;;;48.35;32.30;;;11.60;99.90;;;;;;5003009;28;20033;-72
2022/04/23 06:45:33;;;;;;;44.47;30.52;;;11.70;99.90;;;;;;4995979;28;20077;-72
2022/04/23 06:48:06;;;;;;;47.20;29.73;;;11.70;99.90;;;;;;4998407;28;20599;-72
2022/04/23 06:50:33;;;;;;;41.85;28.50;;;11.80;99.90;;;;;;5000321;28;20038;-73
2022/04/23 06:53:00;;;;;;;43.47;27.23;;;11.80;99.90;;;;;;5001930;28;20052;-72
2022/04/23 06:55:25;;;;;;;42.63;26.90;;;12.00;99.90;;;;;;5004254;28;20072;-72
2022/04/23 06:57:51;;;;;;;46.08;30.13;;;12.00;99.90;;;;;;4994805;28;20069;-72
2022/04/23 07:00:17;;;;;;;44.70;30.05;;;12.00;99.90;;;;;;5002092;28;20369;-72
2022/04/23 07:02:43;;;;;;;50.08;30.42;;;12.10;99.90;;;;;;4998538;28;20787;-72
2022/04/23 07:05:09;;;;;;;43.13;28.70;;;12.10;99.90;;;;;;4998303;28;20132;-72
2022/04/23 07:07:35;;;;;;;45.58;29.98;;;11.90;99.90;;;;;;5002994;28;20129;-72
2022/04/23 07:10:00;;;;;;;33.05;23.38;;;12.00;99.90;;;;;;5002386;28;20037;-72
2022/04/23 07:12:27;;;;;;;22.33;15.85;;;12.10;99.90;;;;;;4995983;28;20601;-72
2022/04/23 07:14:53;;;;;;;22.40;14.70;;;12.20;99.90;;;;;;4999881;28;20424;-72
2022/04/23 07:17:25;;;;;;;25.08;14.90;;;12.30;99.90;;;;;;4998719;28;20033;-72
2022/04/23 07:19:53;;;;;;;19.05;13.18;;;12.30;99.90;;;;;;4999223;28;20039;-72
2022/04/23 07:22:20;;;;;;;24.77;16.67;;;12.50;99.90;;;;;;4997482;28;20046;-72
2022/04/23 07:24:48;;;;;;;42.40;28.92;;;12.50;99.90;;;;;;4988816;28;20027;-72
2022/04/23 07:27:13;;;;;;;47.05;30.98;;;12.30;99.90;;;;;;5001780;28;20037;-72
2022/04/23 07:29:39;;;;;;;45.35;31.00;;;12.10;99.90;;;;;;5000016;28;20034;-72
2022/04/23 07:32:05;;;;;;;45.72;29.95;;;12.00;99.90;;;;;;4996012;28;20399;-72
2022/04/23 07:37:31;;;;;;;44.70;31.20;;;12.10;99.90;;;;;;4981692;28;20049;-73
2022/04/23 07:40:10;;;;;;;46.67;31.70;;;12.00;99.90;;;;;;4994358;28;20021;-73
2022/04/23 07:42:36;;;;;;;45.67;30.63;;;11.80;99.90;;;;;;4987384;28;20041;-72
2022/04/23 07:45:02;;;;;;;46.45;29.63;;;11.90;99.90;;;;;;4982974;28;20034;-73
2022/04/23 07:47:30;;;;;;;44.53;28.38;;;11.90;99.90;;;;;;4990320;28;20069;-73
2022/04/23 07:49:58;;;;;;;45.80;28.75;;;12.00;99.90;;;;;;4985918;28;20516;-73
2022/04/23 07:52:24;;;;;;;40.28;27.25;;;12.20;99.90;;;;;;4985820;28;20157;-73
2022/04/23 07:54:49;;;;;;;43.72;25.90;;;12.30;99.90;;;;;;4993093;28;20120;-72
2022/04/23 07:57:23;;;;;;;38.70;25.83;;;12.50;99.90;;;;;;4989425;28;20048;-73
2022/04/23 07:59:49;;;;;;;47.15;29.35;;;12.60;99.90;;;;;;4991528;28;20054;-73
2022/04/23 08:02:15;;;;;;;44.55;27.58;;;12.60;99.90;;;;;;4996497;28;20042;-73
2022/04/23 08:04:41;;;;;;;48.95;29.40;;;12.50;99.90;;;;;;4998743;28;20034;-73
2022/04/23 08:07:07;;;;;;;46.28;30.35;;;12.50;99.90;;;;;;5004183;28;20092;-73
2022/04/23 08:09:39;;;;;;;47.17;30.55;;;12.60;99.90;;;;;;4990518;28;20057;-73
2022/04/23 08:12:09;;;;;;;44.63;29.75;;;12.50;99.90;;;;;;5000228;28;20129;-74
2022/04/23 08:14:35;;;;;;;47.22;31.08;;;12.40;99.90;;;;;;4998700;28;20033;-72
2022/04/23 08:17:01;;;;;;;45.47;30.27;;;12.50;99.90;;;;;;4976946;28;20040;-73
2022/04/23 08:19:27;;;;;;;48.38;32.20;;;12.70;99.90;;;;;;4978238;28;20417;-73
2022/04/23 08:21:52;;;;;;;42.88;27.50;;;12.70;99.90;;;;;;4978818;28;20057;-73
2022/04/23 08:24:19;;;;;;;42.30;30.30;;;12.70;99.90;;;;;;5004215;28;20056;-72
2022/04/23 08:26:44;;;;;;;46.13;29.67;;;12.80;99.90;;;;;;4996865;28;20041;-72
2022/04/23 08:31:55;;;;;;;41.22;29.05;;;13.10;99.90;;;;;;5003984;28;20037;-72
2022/04/23 08:34:21;;;;;;;41.45;27.92;;;13.40;99.90;;;;;;4994140;28;20034;-73
2022/04/23 08:36:49;;;;;;;44.60;30.70;;;13.40;99.90;;;;;;4990379;28;20077;-73
2022/04/23 08:39:16;;;;;;;45.88;29.52;;;13.40;99.90;;;;;;4974151;28;20798;-73
2022/04/23 08:41:45;;;;;;;43.58;28.67;;;13.50;99.90;;;;;;4972837;28;20670;-73
2022/04/23 08:44:10;;;;;;;41.83;28.17;;;13.40;99.90;;;;;;4990937;28;20038;-72
2022/04/23 08:46:38;;;;;;;50.78;30.52;;;13.40;99.90;;;;;;4995851;28;20085;-73
2022/04/23 08:49:10;;;;;;;48.58;29.60;;;13.40;99.90;;;;;;4997720;28;20117;-72
2022/04/23 08:51:37;;;;;;;38.30;27.60;;;13.50;99.90;;;;;;4999985;28;20042;-73
2022/04/23 08:54:11;;;;;;;48.35;32.15;;;13.50;99.90;;;;;;4998794;28;20454;-73
2022/04/23 08:56:39;;;;;;;42.65;29.80;;;13.60;99.90;;;;;;4998313;28;20088;-73
2022/04/23 08:59:09;;;;;;;46.03;30.35;;;13.60;99.90;;;;;;4997206;28;20112;-72
2022/04/23 09:01:36;;;;;;;50.45;31.20;;;13.50;99.90;;;;;;4993683;28;20058;-73
2022/04/23 09:04:03;;;;;;;42.03;27.65;;;13.50;99.90;;;;;;4997342;28;20088;-73
2022/04/23 09:06:43;;;;;;;37.40;25.73;;;13.40;99.90;;;;;;5002220;28;20049;-73
2022/04/23 09:09:14;;;;;;;44.95;29.30;;;13.50;99.90;;;;;;4996618;28;20125;-72
2022/04/23 09:11:50;;;;;;;38.25;26.70;;;13.50;99.90;;;;;;5000377;28;20026;-72
2022/04/23 09:14:23;;;;;;;37.45;26.60;;;13.60;99.90;;;;;;5004995;28;20117;-73
2022/04/23 09:25:11;;;;;;;41.78;25.70;;;13.50;99.90;;;;;;5003228;28;20052;-73
2022/04/23 09:27:38;;;;;;;43.97;26.77;;;13.40;99.90;;;;;;4992468;28;20080;-72
2022/04/23 09:30:06;;;;;;;40.20;26.38;;;13.50;99.90;;;;;;5006372;28;20061;-72
2022/04/23 09:32:32;;;;;;;39.92;25.33;;;13.50;99.90;;;;;;4996938;28;20124;-73
2022/04/23 09:35:10;;;;;;;39.03;27.95;;;13.60;99.90;;;;;;5000942;28;20037;-72
2022/04/23 09:40:27;;;;;;;37.83;25.63;;;13.60;99.90;;;;;;4990880;28;20388;-73
2022/04/23 09:43:00;;;;;;;39.35;26.25;;;13.60;99.90;;;;;;4999802;28;20492;-73
2022/04/23 09:45:28;;;;;;;35.28;24.73;;;13.60;99.90;;;;;;5003818;28;20104;-73
2022/04/23 09:47:55;;;;;;;37.25;24.65;;;13.60;99.90;;;;;;4993003;28;20112;-73
2022/04/23 09:50:21;;;;;;;34.15;23.52;;;13.60;99.90;;;;;;4998659;28;20034;-73
2022/04/23 09:52:49;;;;;;;34.95;23.38;;;13.80;99.90;;;;;;4999474;28;20046;-72
2022/04/23 09:55:17;;;;;;;34.28;22.70;;;14.00;99.90;;;;;;4995566;28;20030;-73
2022/04/23 09:57:45;;;;;;;44.97;26.95;;;14.00;99.90;;;;;;4976241;28;20057;-73
2022/04/23 10:00:11;;;;;;;36.53;24.58;;;14.10;99.90;;;;;;4977540;28;20045;-73
2022/04/23 10:02:38;;;;;;;34.08;23.52;;;14.10;99.90;;;;;;5000224;28;20062;-73
2022/04/23 10:05:05;;;;;;;34.20;22.90;;;14.10;99.90;;;;;;5000248;28;20166;-73
2022/04/23 10:07:33;;;;;;;37.13;23.90;;;14.20;99.90;;;;;;5002164;28;20484;-73
2022/04/23 10:10:03;;;;;;;32.70;22.38;;;14.30;99.90;;;;;;4999797;28;20424;-73
2022/04/23 10:12:33;;;;;;;31.65;22.80;;;14.30;99.90;;;;;;4999790;28;20438;-73
2022/04/23 10:15:00;;;;;;;31.73;21.23;;;14.50;99.90;;;;;;5004563;28;20567;-73
2022/04/23 10:17:28;;;;;;;35.17;22.95;;;14.80;99.90;;;;;;4999059;28;20463;-72
2022/04/23 10:19:55;;;;;;;31.98;22.13;;;14.90;99.90;;;;;;5004444;28;20030;-73
2022/04/23 10:22:52;;;;;;;37.03;22.95;;;15.00;99.90;;;;;;4997337;28;20069;-73
2022/04/23 10:25:40;;;;;;;34.10;24.92;;;14.80;99.90;;;;;;5004048;28;20075;-73
2022/04/23 10:28:06;;;;;;;34.05;21.58;;;14.70;99.90;;;;;;5000233;28;20033;-72
2022/04/23 10:30:31;;;;;;;30.30;19.80;;;14.60;99.90;;;;;;4997000;28;20026;-73
2022/04/23 10:32:57;;;;;;;31.85;22.05;;;14.40;99.90;;;;;;5004859;28;20057;-73
2022/04/23 10:35:23;;;;;;;32.10;21.35;;;14.50;99.90;;;;;;4998407;28;20042;-73
2022/04/23 10:37:52;;;;;;;33.20;20.35;;;14.50;99.90;;;;;;4997986;28;20066;-73
2022/04/23 10:40:19;;;;;;;22.20;15.25;;;14.50;99.90;;;;;;4978034;28;20026;-73
2022/04/23 10:43:12;;;;;;;22.40;16.15;;;14.50;99.90;;;;;;4997842;28;20074;-73
2022/04/23 10:45:42;;;;;;;23.38;17.17;;;14.70;99.70;;;;;;4999277;28;20040;-73
2022/04/23 10:48:21;;;;;;;25.85;17.98;;;14.70;99.20;;;;;;5003190;28;20126;-73
2022/04/23 10:51:05;;;;;;;25.52;17.17;;;14.80;99.40;;;;;;5001403;28;20083;-73
2022/04/23 10:53:37;;;;;;;24.42;17.67;;;15.10;99.40;;;;;;5004581;28;20437;-73
2022/04/23 10:56:13;;;;;;;24.45;16.23;;;15.30;99.30;;;;;;5002855;28;20046;-73
2022/04/23 10:58:40;;;;;;;18.10;12.73;;;15.50;98.60;;;;;;5000212;28;20116;-73
2022/04/23 11:01:31;;;;;;;16.85;11.73;;;15.30;97.20;;;;;;4992770;28;20403;-73
2022/04/23 11:03:57;;;;;;;20.65;12.20;;;15.40;98.00;;;;;;5000061;28;20854;-73
2022/04/23 11:12:27;;;;;;;21.20;16.15;;;15.50;98.50;;;;;;5010856;28;20049;-73
2022/04/23 11:14:55;;;;;;;20.77;14.45;;;15.70;98.10;;;;;;5009812;28;20129;-73
2022/04/23 11:17:23;;;;;;;18.95;13.45;;;15.90;98.30;;;;;;5000473;28;20038;-73
2022/04/23 11:19:52;;;;;;;18.60;12.95;;;16.20;97.90;;;;;;5000773;28;20053;-73
2022/04/23 11:22:20;;;;;;;22.25;14.23;;;16.70;97.60;;;;;;5003008;28;20050;-73
2022/04/23 11:24:53;;;;;;;19.05;10.43;;;16.80;96.90;;;;;;5001076;28;20131;-73
2022/04/23 11:27:29;;;;;;;19.75;13.77;;;16.40;96.40;;;;;;5002825;28;20030;-73
2022/04/23 11:29:55;;;;;;;17.17;10.48;;;16.20;97.00;;;;;;5006603;28;20484;-72
2022/04/23 11:32:30;;;;;;;10.68;8.40;;;16.30;96.90;;;;;;5005964;28;20045;-73
2022/04/23 11:35:02;;;;;;;17.65;11.98;;;16.00;95.90;;;;;;5002522;28;20634;-73
2022/04/23 11:37:35;;;;;;;17.42;12.88;;;15.90;97.40;;;;;;4994899;28;20057;-75
2022/04/23 11:40:13;;;;;;;15.27;10.55;;;16.20;97.80;;;;;;4992664;28;20066;-73
2022/04/23 11:42:40;;;;;;;18.50;12.52;;;16.00;97.40;;;;;;4997021;28;20364;-72
2022/04/23 11:45:10;;;;;;;17.00;11.90;;;16.00;98.30;;;;;;4995429;28;20498;-72
2022/04/23 11:47:36;;;;;;;16.02;9.95;;;16.40;99.00;;;;;;4997617;28;20025;-72
2022/04/23 11:50:14;;;;;;;15.52;10.05;;;16.80;98.40;;;;;;4991923;28;20030;-73
2022/04/23 11:52:41;;;;;;;14.55;9.23;;;16.70;97.50;;;;;;4996555;28;20388;-72
2022/04/23 11:55:08;;;;;;;15.88;10.95;;;16.70;96.70;;;;;;4989930;28;20030;-72
2022/04/23 11:57:35;;;;;;;14.50;10.48;;;16.80;97.10;;;;;;4998022;28;20100;-72
2022/04/23 12:00:03;;;;;;;18.13;9.15;;;16.70;97.30;;;;;;5000492;28;20026;-72
2022/04/23 12:02:32;;;;;;;14.63;10.07;;;17.00;98.10;;;;;;4993177;28;20030;-72
2022/04/23 12:05:02;;;;;;;13.82;10.10;;;17.60;97.90;;;;;;4993212;28;20080;-72
2022/04/23 12:07:31;;;;;;;13.00;6.68;;;17.70;96.20;;;;;;4995098;28;20048;-73
2022/04/23 12:09:59;;;;;;;12.82;8.27;;;17.30;95.20;;;;;;5000342;28;20548;-73
2022/04/23 12:12:29;;;;;;;16.88;10.07;;;17.30;95.20;;;;;;5004761;28;20850;-73
2022/04/23 12:14:57;;;;;;;12.50;7.07;;;17.30;95.70;;;;;;5001063;28;20033;-73
2022/04/23 12:17:27;;;;;;;11.73;6.80;;;17.20;95.40;;;;;;5001908;28;20040;-76
2022/04/23 12:19:54;;;;;;;7.95;3.97;;;17.10;95.20;;;;;;4990801;28;20026;-73
2022/04/23 12:22:30;;;;;;;4.38;2.65;;;16.80;94.80;;;;;;4992787;28;20088;-73
2022/04/23 12:25:21;;;;;;;5.25;3.20;;;16.80;95.10;;;;;;4993419;28;20025;-72
2022/04/23 12:28:00;;;;;;;7.72;5.72;;;16.30;95.60;;;;;;4993691;28;20029;-72
2022/04/23 12:42:05;;;;;;;24.67;13.35;;;15.90;98.30;;;;;;4989431;28;20229;-73
2022/04/23 12:44:52;;;;;;;24.50;13.73;;;15.70;98.20;;;;;;4997457;28;20034;-73
2022/04/23 12:47:32;;;;;;;16.92;11.10;;;15.60;98.30;;;;;;4990321;28;20035;-73
2022/04/23 12:50:00;;;;;;;8.25;5.70;;;15.80;99.20;;;;;;4996784;28;20116;-72
2022/04/23 12:52:31;;;;;;;18.20;12.88;;;15.90;98.70;;;;;;4988718;28;20052;-72
2022/04/23 12:55:36;;;;;;;10.73;7.88;;;15.80;97.80;;;;;;4996686;28;20142;-72
2022/04/23 12:58:02;;;;;;;10.55;3.17;;;16.00;97.60;;;;;;4993935;28;20026;-73
2022/04/23 13:00:28;;;;;;;7.53;4.00;;;16.30;98.10;;;;;;4997404;28;20608;-73
2022/04/23 13:02:58;;;;;;;7.85;4.18;;;16.30;98.10;;;;;;4986932;28;20496;-72
2022/04/23 13:05:25;;;;;;;6.35;4.10;;;16.30;97.80;;;;;;4991271;28;20032;-72
2022/04/23 13:10:36;;;;;;;11.30;7.15;;;16.30;96.10;;;;;;4989597;28;21559;-73
2022/04/23 13:13:03;;;;;;;4.80;2.83;;;16.10;95.60;;;;;;4992657;28;20025;-73